createdAt,value
2023-05-22T00:01:47.093Z,55.82
2023-05-22T00:04:21.713Z,55.79
2023-05-22T00:06:49.826Z,55.82
2023-05-22T00:09:17.690Z,55.75
2023-05-22T00:11:45.372Z,55.83
2023-05-22T00:14:13.935Z,55.81
2023-05-22T00:16:41.656Z,55.85
2023-05-22T00:19:13.830Z,55.82
2023-05-22T00:21:41.546Z,55.77
2023-05-22T00:24:09.884Z,55.75
2023-05-22T00:26:37.465Z,55.73
2023-05-22T00:29:06.238Z,55.72
2023-05-22T00:31:33.893Z,55.78
2023-05-22T00:34:01.679Z,55.67
2023-05-22T00:36:29.728Z,55.84
2023-05-22T00:38:57.330Z,55.63
2023-05-22T00:41:24.797Z,55.68
2023-05-22T00:43:52.426Z,55.70
2023-05-22T00:46:21.861Z,55.75
2023-05-22T00:48:49.693Z,55.72
2023-05-22T00:51:17.298Z,55.59
2023-05-22T00:53:44.843Z,55.64
2023-05-22T00:56:13.494Z,55.54
2023-05-22T00:58:41.604Z,55.65
2023-05-22T01:01:11.789Z,55.63
2023-05-22T01:03:47.530Z,55.70
2023-05-22T01:06:16.464Z,55.50
2023-05-22T01:08:44.356Z,55.62
2023-05-22T01:11:19.071Z,55.57
2023-05-22T01:13:53.477Z,55.48
2023-05-22T01:16:22.264Z,55.51
2023-05-22T01:19:18.333Z,55.50
2023-05-22T01:21:53.626Z,55.52
2023-05-22T01:24:56.603Z,55.40
2023-05-22T01:27:49.764Z,55.43
2023-05-22T01:30:19.004Z,55.52
2023-05-22T01:32:47.577Z,55.43
2023-05-22T01:35:17.800Z,55.61
2023-05-22T01:37:45.251Z,55.34
2023-05-22T01:40:13.334Z,55.52
2023-05-22T01:42:41.540Z,55.49
2023-05-22T01:45:11.956Z,55.44
2023-05-22T01:47:39.578Z,55.44
2023-05-22T01:50:07.605Z,55.30
2023-05-22T01:52:42.948Z,55.34
2023-05-22T01:55:18.420Z,55.35
2023-05-22T01:58:27.627Z,55.37
2023-05-22T02:00:56.536Z,55.22
2023-05-22T02:03:28.070Z,55.24
2023-05-22T02:05:56.062Z,55.15
2023-05-22T02:08:23.750Z,55.13
2023-05-22T02:10:51.575Z,55.20
2023-05-22T02:13:23.899Z,55.10
2023-05-22T02:15:51.848Z,55.13
2023-05-22T02:18:19.348Z,55.10
2023-05-22T02:20:47.439Z,55.02
2023-05-22T02:23:15.057Z,54.85
2023-05-22T02:25:42.561Z,54.91
2023-05-22T02:28:10.864Z,54.80
2023-05-22T02:30:39.107Z,54.77
2023-05-22T02:33:07.849Z,54.70
2023-05-22T02:35:36.013Z,54.56
2023-05-22T02:38:04.250Z,54.62
2023-05-22T02:40:32.046Z,54.61
2023-05-22T02:42:59.669Z,54.73
2023-05-22T02:45:27.317Z,54.72
2023-05-22T02:47:55.198Z,54.56
2023-05-22T02:50:22.879Z,54.58
2023-05-22T02:52:51.600Z,54.61
2023-05-22T02:55:19.344Z,54.63
2023-05-22T02:57:48.018Z,54.68
2023-05-22T03:00:15.913Z,54.65
2023-05-22T03:02:43.597Z,54.64
2023-05-22T03:05:11.200Z,54.56
2023-05-22T03:07:38.673Z,54.62
2023-05-22T03:10:07.184Z,54.69
2023-05-22T03:12:34.696Z,54.67
2023-05-22T03:15:02.980Z,54.75
2023-05-22T03:17:31.229Z,54.72
2023-05-22T03:19:58.813Z,54.66
2023-05-22T03:22:26.548Z,54.71
2023-05-22T03:24:53.950Z,54.73
2023-05-22T03:27:21.535Z,54.81
2023-05-22T03:29:50.173Z,54.66
2023-05-22T03:32:18.349Z,54.79
2023-05-22T03:34:46.577Z,54.73
2023-05-22T03:37:14.175Z,54.80
2023-05-22T03:39:41.910Z,54.76
2023-05-22T03:42:23.551Z,54.78
2023-05-22T03:44:51.519Z,54.84
2023-05-22T03:47:19.422Z,54.85
2023-05-22T03:49:47.204Z,54.90
2023-05-22T03:52:14.980Z,54.81
2023-05-22T03:54:42.526Z,54.86
2023-05-22T03:57:10.173Z,54.76
2023-05-22T03:59:37.597Z,54.79
2023-05-22T04:02:05.726Z,54.90
2023-05-22T04:04:38.914Z,54.84
2023-05-22T04:07:08.687Z,54.83
2023-05-22T04:09:36.800Z,54.75
2023-05-22T04:12:05.020Z,54.82
2023-05-22T04:14:33.181Z,54.82
2023-05-22T04:17:00.657Z,54.85
2023-05-22T04:19:30.560Z,54.81
2023-05-22T04:21:58.808Z,54.78
2023-05-22T04:24:27.940Z,54.74
2023-05-22T04:26:56.677Z,54.84
2023-05-22T04:29:24.748Z,54.92
2023-05-22T04:31:54.765Z,54.85
2023-05-22T04:34:22.181Z,54.86
2023-05-22T04:36:50.541Z,54.80
2023-05-22T04:39:18.615Z,54.85
2023-05-22T04:41:46.575Z,54.86
2023-05-22T04:44:14.664Z,54.83
2023-05-22T04:46:42.626Z,54.82
2023-05-22T04:49:11.026Z,54.87
2023-05-22T04:51:38.499Z,54.88
2023-05-22T04:54:06.411Z,54.81
2023-05-22T04:56:36.922Z,54.81
2023-05-22T04:59:09.623Z,54.77
2023-05-22T05:01:39.263Z,54.76
2023-05-22T05:04:07.036Z,54.07
2023-05-22T05:06:36.250Z,52.09
2023-05-22T05:09:07.584Z,51.25
2023-05-22T05:11:36.908Z,51.20
2023-05-22T05:14:35.846Z,50.55
2023-05-22T05:17:03.717Z,49.58
2023-05-22T05:19:35.480Z,48.77
2023-05-22T05:22:05.574Z,48.25
2023-05-22T05:24:33.255Z,47.94
2023-05-22T05:27:02.262Z,47.85
2023-05-22T05:29:31.168Z,47.41
2023-05-22T05:32:07.291Z,47.49
2023-05-22T05:34:47.498Z,47.44
2023-05-22T05:37:26.097Z,47.53
2023-05-22T05:39:55.879Z,47.64
2023-05-22T05:42:24.012Z,47.63
2023-05-22T05:44:53.458Z,47.61
2023-05-22T05:47:40.487Z,47.77
2023-05-22T05:50:09.993Z,47.89
2023-05-22T05:52:39.280Z,48.11
2023-05-22T05:55:11.919Z,48.11
2023-05-22T05:57:40.307Z,48.39
2023-05-22T06:00:12.449Z,48.48
2023-05-22T06:02:50.347Z,48.66
2023-05-22T06:05:38.761Z,48.70
2023-05-22T06:08:24.353Z,48.71
2023-05-22T06:10:53.687Z,48.66
2023-05-22T06:13:36.402Z,48.59
2023-05-22T06:16:06.553Z,48.64
2023-05-22T06:18:34.940Z,48.62
2023-05-22T06:21:11.855Z,48.62
2023-05-22T06:23:43.105Z,48.68
2023-05-22T06:26:12.125Z,48.80
2023-05-22T06:28:54.779Z,48.91
2023-05-22T06:31:23.746Z,49.09
2023-05-22T06:33:52.701Z,49.20
2023-05-22T06:36:21.727Z,49.03
2023-05-22T06:38:50.046Z,49.18
2023-05-22T06:41:37.466Z,49.27
2023-05-22T06:44:06.847Z,49.20
2023-05-22T06:48:01.579Z,49.29
2023-05-22T07:16:48.684Z,51.44
2023-05-22T07:19:21.691Z,51.56
2023-05-22T07:21:49.354Z,51.83
2023-05-22T07:24:18.906Z,52.04
2023-05-22T07:26:46.932Z,52.06
2023-05-22T07:29:14.979Z,52.17
2023-05-22T07:31:43.038Z,52.20
2023-05-22T07:34:11.192Z,52.27
2023-05-22T07:36:39.097Z,52.22
2023-05-22T07:39:08.536Z,52.37
2023-05-22T07:41:39.498Z,52.32
2023-05-22T07:44:07.888Z,52.39
2023-05-22T07:46:38.732Z,52.36
2023-05-22T07:49:12.157Z,52.30
2023-05-22T07:51:41.708Z,52.34
2023-05-22T07:54:10.677Z,52.35
2023-05-22T07:56:43.797Z,52.35
2023-05-22T07:59:12.500Z,52.35
2023-05-22T08:01:58.505Z,52.25
2023-05-22T08:04:26.509Z,52.39
2023-05-22T08:06:55.307Z,52.36
2023-05-22T08:09:23.200Z,52.41
2023-05-22T08:11:51.151Z,52.34
2023-05-22T08:14:18.728Z,52.35
2023-05-22T08:16:46.225Z,52.25
2023-05-22T08:19:14.314Z,52.22
2023-05-22T08:21:42.322Z,52.13
2023-05-22T08:24:10.354Z,52.18
2023-05-22T08:26:39.180Z,52.12
2023-05-22T08:29:07.023Z,52.10
2023-05-22T08:31:34.956Z,52.03
2023-05-22T08:34:03.075Z,52.03
2023-05-22T08:36:31.867Z,51.98
2023-05-22T08:38:59.291Z,52.00
2023-05-22T08:41:26.973Z,51.97
2023-05-22T08:43:54.573Z,51.89
2023-05-22T08:46:22.139Z,51.90
2023-05-22T08:48:50.025Z,51.88
2023-05-22T08:51:19.347Z,51.88
2023-05-22T08:53:49.961Z,51.85
2023-05-22T08:56:17.701Z,51.76
2023-05-22T08:58:46.586Z,51.80
2023-05-22T09:01:14.317Z,51.71
2023-05-22T09:03:42.750Z,51.81
2023-05-22T09:06:11.520Z,51.82
2023-05-22T09:08:39.675Z,51.74
2023-05-22T09:11:07.252Z,51.67
2023-05-22T09:13:34.891Z,51.60
2023-05-22T09:16:10.310Z,51.64
2023-05-22T09:18:38.758Z,51.56
2023-05-22T09:23:41.826Z,51.54
2023-05-22T09:26:09.572Z,51.46
2023-05-22T09:28:37.674Z,51.43
2023-05-22T09:31:07.594Z,51.43
2023-05-22T09:33:37.507Z,51.34
2023-05-22T09:36:06.471Z,51.12
2023-05-22T09:38:34.158Z,51.10
2023-05-22T09:41:01.682Z,50.95
2023-05-22T09:43:29.230Z,50.84
2023-05-22T09:46:04.945Z,50.79
2023-05-22T09:48:38.679Z,50.85
2023-05-22T09:51:06.319Z,50.75
2023-05-22T09:53:34.059Z,50.71
2023-05-22T09:56:01.945Z,50.76
2023-05-22T09:58:31.576Z,50.72
2023-05-22T10:00:59.758Z,50.72
2023-05-22T10:03:27.393Z,50.73
2023-05-22T10:05:56.719Z,50.65
2023-05-22T10:08:31.719Z,50.74
2023-05-22T10:10:59.266Z,50.58
2023-05-22T10:13:27.713Z,50.46
2023-05-22T10:15:55.323Z,50.62
2023-05-22T10:20:43.275Z,52.53
2023-05-22T10:23:11.621Z,51.37
2023-05-22T10:25:40.208Z,51.27
2023-05-22T10:28:08.197Z,51.24
2023-05-22T10:30:48.912Z,50.94
2023-05-22T10:33:42.898Z,50.71
2023-05-22T10:36:52.321Z,50.51
2023-05-22T10:39:54.871Z,50.43
2023-05-22T10:42:30.797Z,50.30
2023-05-22T10:45:00.922Z,50.23
2023-05-22T10:47:29.101Z,50.31
2023-05-22T10:50:12.501Z,50.32
2023-05-22T10:52:40.565Z,50.24
2023-05-22T10:55:09.630Z,50.24
2023-05-22T10:57:40.255Z,50.15
2023-05-22T11:00:09.856Z,50.20
2023-05-22T11:02:48.254Z,49.94
2023-05-22T11:05:20.372Z,49.88
2023-05-22T11:07:48.654Z,49.76
2023-05-22T11:10:26.580Z,49.70
2023-05-22T11:13:11.598Z,49.64
2023-05-22T11:15:45.036Z,49.83
2023-05-22T11:18:13.092Z,49.76
2023-05-22T11:20:41.095Z,49.73
2023-05-22T11:23:11.022Z,49.66
2023-05-22T11:25:40.138Z,49.53
2023-05-22T11:28:08.381Z,49.45
2023-05-22T11:30:36.349Z,49.28
2023-05-22T11:33:05.235Z,49.38
2023-05-22T11:35:32.746Z,49.53
2023-05-22T11:38:00.694Z,49.63
2023-05-22T11:40:29.890Z,49.72
2023-05-22T11:42:57.701Z,49.67
2023-05-22T11:45:26.209Z,49.61
2023-05-22T11:47:54.351Z,49.49
2023-05-22T11:50:40.223Z,49.39
2023-05-22T11:53:09.813Z,49.39
2023-05-22T11:55:38.160Z,49.29
2023-05-22T11:58:11.650Z,49.03
2023-05-22T12:00:40.290Z,49.01
2023-05-22T12:03:09.648Z,49.06
2023-05-22T12:05:38.674Z,48.99
2023-05-22T12:08:07.073Z,48.94
2023-05-22T12:10:35.509Z,48.94
2023-05-22T12:13:03.827Z,48.83
